KALB/ALB METAR and TAF weather

Enter ICAO airport designator
Station Type Date Time Source
KALB METAR 2022/12/04 04:51 UTC NOAA

KALB 040451Z 30013G18KT 270V340 10SM OVC050 03/M06 A3014 RMK AO2 SLP209 T00331056 401170033


Station Type Date Time Source
KALB Decoded METAR 2022/12/04 04:51 UTC NOAA

ALBANY INTERNATIONAL AIRPORT, NY, United States (KALB) 42-45N 73-48W
Dec 03, 2022 - 11:51 PM EST / 2022.12.04 0451 UTC
Wind: from the WNW (300 degrees) at 15 MPH (13 KT) gusting to 21 MPH (18 KT) (direction variable):0
Visibility: 10 mile(s):0
Sky conditions: overcast
Temperature: 37.9 F (3.3 C)
Dew Point: 21.9 F (-5.6 C)
Relative Humidity: 52%
Pressure (altimeter): 30.14 in. Hg (1020 hPa)
ob: KALB 040451Z 30013G18KT 270V340 10SM OVC050 03/M06 A3014 RMK AO2 SLP209 T00331056 401170033
cycle: 5

Station Type Date Time Source
KALB TAF 2022/12/04 06:24 UTC NOAA

TAF KALB 040523Z 0406/0506 30012G19KT P6SM BKN045
FM041200 29009KT P6SM BKN045
FM042200 18003KT P6SM FEW045

Example: see airport list